Time;durP1;ratioP1;P1;durP2;ratioP2;P2;SDS_P1;SDS_P2;PMS_P1;PMS_P2;Temp;Humidity;BMP_temperature;BMP_pressure;BME280_temperature;BME280_humidity;BME280_pressure;Samples;Min_cycle;Max_cycle;Signal;HPM_P1;HPM_P2
2023/05/10 00:00:31;;;;;;;5.43;3.70;;;;;;;;;;5012975;28;20061;-91
2023/05/10 00:02:58;;;;;;;4.65;3.30;;;;;;;;;;5013521;28;20136;-91
2023/05/10 00:05:26;;;;;;;4.78;3.15;;;;;;;;;;5012997;28;20057;-91
2023/05/10 00:07:53;;;;;;;3.45;3.15;;;;;;;;;;5014595;28;20045;-91
2023/05/10 00:10:20;;;;;;;4.78;3.30;;;;;;;;;;5032699;28;20064;-91
2023/05/10 00:12:47;;;;;;;3.72;3.40;;;;;;;;;;5021212;28;20156;-91
2023/05/10 00:15:15;;;;;;;4.20;3.25;;;;;;;;;;5012598;28;20053;-91
2023/05/10 00:17:42;;;;;;;3.45;3.25;;;;;;;;;;5013854;28;20052;-91
2023/05/10 00:20:09;;;;;;;5.90;3.15;;;;;;;;;;5012421;28;20054;-91
2023/05/10 00:22:36;;;;;;;8.88;4.00;;;;;;;;;;5012768;28;20086;-90
2023/05/10 00:25:04;;;;;;;3.60;3.30;;;;;;;;;;5012687;28;20062;-91
2023/05/10 00:27:31;;;;;;;7.15;3.60;;;;;;;;;;5012459;28;20426;-91
2023/05/10 00:29:58;;;;;;;4.50;3.40;;;;;;;;;;5013736;28;20049;-91
2023/05/10 00:32:25;;;;;;;4.88;3.25;;;;;;;;;;5013536;28;20050;-90
2023/05/10 00:34:53;;;;;;;5.65;2.72;;;;;;;;;;5013682;28;20104;-91
2023/05/10 00:37:20;;;;;;;3.67;3.38;;;;;;;;;;5027144;28;20050;-91
2023/05/10 00:39:47;;;;;;;3.60;3.28;;;;;;;;;;5014155;28;20072;-91
2023/05/10 00:42:14;;;;;;;3.70;3.25;;;;;;;;;;5013609;28;20136;-91
2023/05/10 00:44:42;;;;;;;6.80;3.38;;;;;;;;;;5012358;28;20052;-90
2023/05/10 00:47:09;;;;;;;3.30;3.00;;;;;;;;;;5014414;28;20069;-90
2023/05/10 00:49:37;;;;;;;7.45;3.30;;;;;;;;;;5016021;28;20046;-90
2023/05/10 00:52:04;;;;;;;5.13;3.38;;;;;;;;;;5016087;28;20053;-89
2023/05/10 00:54:31;;;;;;;7.03;3.17;;;;;;;;;;5016066;28;20050;-91
2023/05/10 00:56:58;;;;;;;5.10;3.28;;;;;;;;;;5016040;28;20046;-90
2023/05/10 00:59:26;;;;;;;3.67;2.65;;;;;;;;;;5015734;28;20046;-91
2023/05/10 01:01:53;;;;;;;5.18;3.28;;;;;;;;;;5016450;28;20576;-91
2023/05/10 01:04:25;;;;;;;3.20;2.90;;;;;;;;;;5015939;28;20061;-91
2023/05/10 01:06:53;;;;;;;4.20;3.25;;;;;;;;;;5015702;28;20100;-91
2023/05/10 01:09:21;;;;;;;7.47;2.92;;;;;;;;;;5016881;28;20112;-91
2023/05/10 01:11:49;;;;;;;4.00;2.97;;;;;;;;;;5015805;28;20050;-91
2023/05/10 01:14:18;;;;;;;5.20;3.22;;;;;;;;;;5015574;28;20505;-91
2023/05/10 01:16:47;;;;;;;3.38;2.90;;;;;;;;;;5015419;28;20054;-90
2023/05/10 01:19:25;;;;;;;3.67;3.00;;;;;;;;;;5015845;28;20050;-90
2023/05/10 01:22:11;;;;;;;12.55;3.35;;;;;;;;;;5015781;28;20050;-91
2023/05/10 01:24:58;;;;;;;3.60;3.30;;;;;;;;;;5028351;28;20060;-90
2023/05/10 01:27:40;;;;;;;3.10;2.80;;;;;;;;;;5025057;28;20049;-91
2023/05/10 01:30:26;;;;;;;5.78;3.00;;;;;;;;;;5015186;28;20050;-91
2023/05/10 01:32:58;;;;;;;3.88;3.45;;;;;;;;;;5015144;28;20049;-90
2023/05/10 01:35:37;;;;;;;3.17;2.97;;;;;;;;;;5016148;28;20096;-91
2023/05/10 01:38:16;;;;;;;5.57;3.20;;;;;;;;;;5015168;28;20053;-90
2023/05/10 01:40:48;;;;;;;4.95;3.00;;;;;;;;;;5014659;28;20056;-91
2023/05/10 01:43:23;;;;;;;3.97;2.75;;;;;;;;;;5015415;28;20089;-90
2023/05/10 01:45:56;;;;;;;2.95;2.72;;;;;;;;;;5015908;28;20049;-90
2023/05/10 01:48:24;;;;;;;3.25;2.95;;;;;;;;;;5016083;28;20050;-91
2023/05/10 01:50:52;;;;;;;5.32;3.30;;;;;;;;;;5014818;28;20045;-91
2023/05/10 01:53:20;;;;;;;4.25;3.05;;;;;;;;;;5014893;28;20050;-91
2023/05/10 01:55:52;;;;;;;4.70;3.30;;;;;;;;;;5014869;28;20409;-90
2023/05/10 01:58:21;;;;;;;2.97;2.75;;;;;;;;;;5014891;28;20081;-91
2023/05/10 02:00:50;;;;;;;6.40;3.35;;;;;;;;;;5015005;28;20050;-91
2023/05/10 02:03:19;;;;;;;19.23;3.53;;;;;;;;;;5014582;28;20156;-90
2023/05/10 02:05:47;;;;;;;3.65;3.20;;;;;;;;;;5015371;28;20635;-92
2023/05/10 02:08:15;;;;;;;4.22;3.60;;;;;;;;;;5014652;28;20418;-92
2023/05/10 02:10:43;;;;;;;8.82;3.78;;;;;;;;;;5014763;28;20046;-92
2023/05/10 02:13:11;;;;;;;4.95;3.50;;;;;;;;;;5014311;28;20060;-91
2023/05/10 02:15:42;;;;;;;8.25;3.55;;;;;;;;;;5014540;28;20054;-91
2023/05/10 02:18:11;;;;;;;9.60;3.97;;;;;;;;;;5014448;28;20478;-91
2023/05/10 02:20:39;;;;;;;6.38;3.20;;;;;;;;;;5014338;28;20049;-91
2023/05/10 02:23:07;;;;;;;8.60;3.50;;;;;;;;;;5014010;28;20053;-91
2023/05/10 02:25:35;;;;;;;5.45;3.40;;;;;;;;;;5015078;28;20422;-91
2023/05/10 02:28:04;;;;;;;6.70;3.78;;;;;;;;;;5014093;28;20136;-92
2023/05/10 02:30:32;;;;;;;3.90;3.53;;;;;;;;;;5014282;28;20537;-91
2023/05/10 02:33:00;;;;;;;5.85;3.75;;;;;;;;;;5014583;28;20042;-92
2023/05/10 02:35:27;;;;;;;9.98;3.70;;;;;;;;;;5014061;28;20061;-92
2023/05/10 02:37:55;;;;;;;7.55;3.70;;;;;;;;;;5016164;28;20045;-92
2023/05/10 02:40:23;;;;;;;7.38;3.63;;;;;;;;;;5030245;28;20045;-91
2023/05/10 02:42:55;;;;;;;7.65;3.50;;;;;;;;;;5022109;28;20049;-91
2023/05/10 02:45:25;;;;;;;4.10;3.58;;;;;;;;;;5014898;28;20061;-91
2023/05/10 02:47:52;;;;;;;8.70;4.53;;;;;;;;;;5015997;28;20474;-91
2023/05/10 02:50:20;;;;;;;6.32;3.80;;;;;;;;;;5021499;28;20050;-92
2023/05/10 02:52:52;;;;;;;3.42;3.13;;;;;;;;;;5014912;28;20133;-91
2023/05/10 02:55:20;;;;;;;5.40;3.33;;;;;;;;;;5013884;28;20423;-92
2023/05/10 02:57:57;;;;;;;6.13;3.70;;;;;;;;;;5013807;28;20046;-91
2023/05/10 03:00:25;;;;;;;8.32;3.75;;;;;;;;;;5013647;28;20526;-92
2023/05/10 03:02:52;;;;;;;3.60;3.33;;;;;;;;;;5013526;28;20050;-91
2023/05/10 03:05:20;;;;;;;3.97;3.63;;;;;;;;;;5013533;28;20049;-91
2023/05/10 03:07:48;;;;;;;3.72;3.38;;;;;;;;;;5013586;28;20050;-91
2023/05/10 03:10:15;;;;;;;4.25;3.60;;;;;;;;;;5014326;28;20060;-91
2023/05/10 03:13:02;;;;;;;4.72;3.35;;;;;;;;;;5013353;28;20049;-91
2023/05/10 03:15:38;;;;;;;4.28;3.40;;;;;;;;;;5013438;28;20391;-91
2023/05/10 03:18:08;;;;;;;5.28;3.38;;;;;;;;;;5013171;28;20056;-91
2023/05/10 03:20:51;;;;;;;7.22;3.13;;;;;;;;;;5012934;28;20141;-92
2023/05/10 03:23:18;;;;;;;6.15;3.55;;;;;;;;;;5013026;28;20046;-92
2023/05/10 03:25:47;;;;;;;8.80;3.28;;;;;;;;;;5013058;28;20105;-92
2023/05/10 03:28:16;;;;;;;11.60;4.07;;;;;;;;;;5013121;28;20128;-91
2023/05/10 03:30:44;;;;;;;11.02;3.90;;;;;;;;;;5013024;28;20049;-92
2023/05/10 03:33:12;;;;;;;9.45;3.45;;;;;;;;;;5013014;28;20501;-92
2023/05/10 03:35:39;;;;;;;8.48;4.00;;;;;;;;;;5013135;28;20050;-91
2023/05/10 03:38:07;;;;;;;10.07;3.22;;;;;;;;;;5014013;28;20069;-92
2023/05/10 03:40:34;;;;;;;8.35;3.85;;;;;;;;;;5012741;28;20481;-91
2023/05/10 03:43:01;;;;;;;6.68;3.65;;;;;;;;;;5012829;28;20049;-91
2023/05/10 03:45:28;;;;;;;5.38;3.78;;;;;;;;;;5012960;28;20057;-91
2023/05/10 03:47:56;;;;;;;8.75;3.20;;;;;;;;;;5014215;28;20092;-91
2023/05/10 03:50:23;;;;;;;7.43;4.20;;;;;;;;;;5014168;28;20049;-91
2023/05/10 03:52:50;;;;;;;7.00;3.80;;;;;;;;;;5013075;28;20045;-88
2023/05/10 03:55:20;;;;;;;6.65;3.50;;;;;;;;;;5024081;28;20058;-91
2023/05/10 03:57:49;;;;;;;6.88;3.30;;;;;;;;;;5027198;28;20056;-92
2023/05/10 04:00:16;;;;;;;4.88;3.15;;;;;;;;;;5017259;28;20136;-91
2023/05/10 04:02:44;;;;;;;9.35;3.33;;;;;;;;;;5014235;28;20395;-91
2023/05/10 04:05:12;;;;;;;9.23;3.38;;;;;;;;;;5012950;28;20125;-91
2023/05/10 04:07:39;;;;;;;4.25;2.90;;;;;;;;;;5012761;28;20049;-91
2023/05/10 04:10:07;;;;;;;3.55;3.10;;;;;;;;;;5012748;28;20054;-91
2023/05/10 04:12:36;;;;;;;3.97;3.08;;;;;;;;;;5012857;28;20057;-91
2023/05/10 04:15:04;;;;;;;6.78;3.58;;;;;;;;;;5013484;28;20068;-92
2023/05/10 04:17:31;;;;;;;4.88;3.28;;;;;;;;;;5012763;28;20046;-91
2023/05/10 04:19:59;;;;;;;5.45;3.33;;;;;;;;;;5012477;28;20054;-91
2023/05/10 04:22:27;;;;;;;5.50;3.35;;;;;;;;;;5014930;28;20057;-92
2023/05/10 04:24:54;;;;;;;8.07;3.55;;;;;;;;;;5016421;28;20054;-91
2023/05/10 04:27:22;;;;;;;9.75;4.15;;;;;;;;;;5016796;28;20049;-91
2023/05/10 04:29:50;;;;;;;9.52;4.05;;;;;;;;;;5016195;28;20042;-90
2023/05/10 04:32:17;;;;;;;12.27;3.67;;;;;;;;;;5017104;28;20049;-91
2023/05/10 04:34:44;;;;;;;8.30;3.45;;;;;;;;;;5016521;28;20136;-92
2023/05/10 04:37:12;;;;;;;14.90;3.85;;;;;;;;;;5016337;28;20046;-91
2023/05/10 04:39:39;;;;;;;8.90;3.58;;;;;;;;;;5016400;28;20050;-91
2023/05/10 04:42:08;;;;;;;5.50;3.78;;;;;;;;;;5016372;28;20056;-92
2023/05/10 04:44:36;;;;;;;9.32;4.47;;;;;;;;;;5016127;28;20060;-91
2023/05/10 04:47:03;;;;;;;6.28;4.40;;;;;;;;;;5016069;28;20133;-91
2023/05/10 04:49:30;;;;;;;5.25;4.75;;;;;;;;;;5016500;28;20049;-92
2023/05/10 04:51:57;;;;;;;4.72;4.32;;;;;;;;;;5016149;28;20049;-92
2023/05/10 04:54:25;;;;;;;6.45;3.85;;;;;;;;;;5020150;28;20057;-94
2023/05/10 04:56:52;;;;;;;3.35;3.05;;;;;;;;;;5015616;28;20092;-92
2023/05/10 04:59:19;;;;;;;3.60;3.30;;;;;;;;;;5019530;28;20061;-91
2023/05/10 05:01:46;;;;;;;3.70;3.40;;;;;;;;;;5017267;28;20054;-92
2023/05/10 05:04:14;;;;;;;4.00;3.55;;;;;;;;;;5017247;28;20074;-90
2023/05/10 05:06:41;;;;;;;10.43;5.82;;;;;;;;;;5016241;28;20656;-92
2023/05/10 05:09:09;;;;;;;7.25;4.30;;;;;;;;;;5018860;28;20052;-92
2023/05/10 05:11:37;;;;;;;4.18;3.78;;;;;;;;;;5027412;28;20085;-92
2023/05/10 05:14:04;;;;;;;4.63;3.50;;;;;;;;;;5020538;28;20057;-92
2023/05/10 05:16:32;;;;;;;4.10;3.70;;;;;;;;;;5016647;28;20054;-92
2023/05/10 05:19:00;;;;;;;5.75;3.30;;;;;;;;;;5015538;28;20086;-92
2023/05/10 05:21:28;;;;;;;4.18;3.67;;;;;;;;;;5015734;28;20130;-92
2023/05/10 05:23:55;;;;;;;4.40;4.00;;;;;;;;;;5015440;28;20097;-92
2023/05/10 05:26:23;;;;;;;6.85;5.72;;;;;;;;;;5016517;28;20046;-92
2023/05/10 05:28:53;;;;;;;5.10;4.05;;;;;;;;;;5015771;28;20054;-92
2023/05/10 05:31:21;;;;;;;8.48;4.10;;;;;;;;;;5015839;28;20060;-92
2023/05/10 05:33:48;;;;;;;8.27;7.45;;;;;;;;;;5015583;28;20125;-92
2023/05/10 05:36:15;;;;;;;6.20;5.60;;;;;;;;;;5015562;28;20053;-93
2023/05/10 05:38:42;;;;;;;7.13;4.68;;;;;;;;;;5015445;28;20085;-91
2023/05/10 05:41:10;;;;;;;6.93;3.92;;;;;;;;;;5015219;28;20509;-93
2023/05/10 05:43:37;;;;;;;14.75;4.60;;;;;;;;;;5015345;28;20052;-90
2023/05/10 05:46:05;;;;;;;5.15;4.50;;;;;;;;;;5015243;28;20132;-90
2023/05/10 05:48:32;;;;;;;5.20;4.60;;;;;;;;;;5016520;28;20124;-90
2023/05/10 05:50:59;;;;;;;5.80;5.20;;;;;;;;;;5015336;28;20050;-90
2023/05/10 05:53:26;;;;;;;5.13;4.57;;;;;;;;;;5016015;28;20045;-90
2023/05/10 05:55:54;;;;;;;5.60;4.95;;;;;;;;;;5016103;28;20049;-89
2023/05/10 05:58:24;;;;;;;13.85;6.22;;;;;;;;;;5016373;28;20049;-88
2023/05/10 06:00:52;;;;;;;12.15;6.25;;;;;;;;;;5015861;28;20103;-88
2023/05/10 06:03:19;;;;;;;7.55;5.97;;;;;;;;;;5014926;28;20479;-87
2023/05/10 06:05:47;;;;;;;12.82;6.50;;;;;;;;;;5015480;28;20490;-88
2023/05/10 06:08:14;;;;;;;7.03;6.15;;;;;;;;;;5014493;28;20560;-86
2023/05/10 06:10:42;;;;;;;6.88;6.20;;;;;;;;;;5014305;28;20072;-87
2023/05/10 06:13:09;;;;;;;7.05;6.18;;;;;;;;;;5014379;28;20054;-87
2023/05/10 06:15:37;;;;;;;7.63;6.07;;;;;;;;;;5015162;28;20512;-87
2023/05/10 06:18:04;;;;;;;7.25;5.93;;;;;;;;;;5014161;28;20068;-87
2023/05/10 06:20:31;;;;;;;6.43;5.82;;;;;;;;;;5015120;28;20085;-87
2023/05/10 06:22:59;;;;;;;7.07;5.80;;;;;;;;;;5013843;28;20426;-86
2023/05/10 06:25:26;;;;;;;6.20;5.60;;;;;;;;;;5014250;28;20053;-87
2023/05/10 06:27:57;;;;;;;10.88;7.53;;;;;;;;;;5019383;28;20049;-86
2023/05/10 06:30:28;;;;;;;12.70;8.77;;;;;;;;;;5014943;28;20049;-87
2023/05/10 06:32:56;;;;;;;8.13;6.75;;;;;;;;;;5015124;28;20056;-87
2023/05/10 06:35:24;;;;;;;13.57;6.20;;;;;;;;;;5013921;28;20466;-87
2023/05/10 06:37:51;;;;;;;9.65;6.70;;;;;;;;;;5015221;28;20049;-87
2023/05/10 06:40:19;;;;;;;9.48;5.70;;;;;;;;;;5014914;28;20073;-87
2023/05/10 06:42:46;;;;;;;11.10;6.90;;;;;;;;;;5014827;28;20053;-86
2023/05/10 06:45:14;;;;;;;8.02;6.70;;;;;;;;;;5013319;28;20046;-87
2023/05/10 06:47:42;;;;;;;8.15;6.22;;;;;;;;;;5013519;28;20084;-87
2023/05/10 06:50:09;;;;;;;6.70;6.18;;;;;;;;;;5014726;28;20081;-86
2023/05/10 06:52:36;;;;;;;7.45;5.80;;;;;;;;;;5013479;28;20509;-86
2023/05/10 06:55:04;;;;;;;6.75;5.45;;;;;;;;;;5013108;28;20052;-86
2023/05/10 06:57:32;;;;;;;6.10;5.65;;;;;;;;;;5013576;28;20045;-86
2023/05/10 06:59:59;;;;;;;7.00;6.40;;;;;;;;;;5013651;28;20140;-86
2023/05/10 07:02:27;;;;;;;9.10;6.05;;;;;;;;;;5013043;28;20053;-86
2023/05/10 07:04:54;;;;;;;6.95;6.38;;;;;;;;;;5014172;28;20533;-86
2023/05/10 07:07:21;;;;;;;7.20;6.50;;;;;;;;;;5014384;28;20046;-86
2023/05/10 07:09:49;;;;;;;5.97;5.50;;;;;;;;;;5013011;28;20053;-86
2023/05/10 07:12:17;;;;;;;7.63;6.05;;;;;;;;;;5012706;28;20475;-85
2023/05/10 07:14:44;;;;;;;6.30;5.70;;;;;;;;;;5012627;28;20561;-85
2023/05/10 07:17:14;;;;;;;8.70;6.43;;;;;;;;;;5012710;28;20050;-86
2023/05/10 07:19:42;;;;;;;7.07;6.43;;;;;;;;;;5013023;28;20057;-85
2023/05/10 07:22:09;;;;;;;6.63;6.13;;;;;;;;;;5012428;28;20061;-85
2023/05/10 07:24:36;;;;;;;7.15;6.55;;;;;;;;;;5013005;28;20049;-86
2023/05/10 07:27:04;;;;;;;6.50;5.90;;;;;;;;;;5012547;28;20049;-85
2023/05/10 07:29:32;;;;;;;7.93;7.20;;;;;;;;;;5012519;28;20049;-86
2023/05/10 07:32:00;;;;;;;6.47;5.65;;;;;;;;;;5012683;28;20418;-86
2023/05/10 07:34:28;;;;;;;5.97;5.25;;;;;;;;;;5013557;28;20142;-86
2023/05/10 07:36:55;;;;;;;7.95;4.78;;;;;;;;;;5012421;28;20502;-86
2023/05/10 07:39:22;;;;;;;5.78;4.38;;;;;;;;;;5012491;28;20422;-85
2023/05/10 07:41:54;;;;;;;5.90;5.30;;;;;;;;;;5015105;28;20403;-85
2023/05/10 07:44:22;;;;;;;4.88;4.38;;;;;;;;;;5017496;28;20056;-86
2023/05/10 07:46:49;;;;;;;4.65;3.63;;;;;;;;;;5012731;28;20049;-86
2023/05/10 07:49:16;;;;;;;9.27;4.20;;;;;;;;;;5012335;28;20050;-86
2023/05/10 07:51:44;;;;;;;3.70;3.40;;;;;;;;;;5012372;28;20053;-86
2023/05/10 07:54:12;;;;;;;3.45;3.05;;;;;;;;;;5011821;28;20192;-86
2023/05/10 07:56:44;;;;;;;3.92;3.47;;;;;;;;;;5012030;28;20053;-86
2023/05/10 07:59:15;;;;;;;4.80;3.40;;;;;;;;;;5013386;28;20137;-86
2023/05/10 08:01:42;;;;;;;2.80;2.63;;;;;;;;;;5013011;28;20054;-86
2023/05/10 08:04:09;;;;;;;2.80;2.33;;;;;;;;;;5013160;28;20065;-86
2023/05/10 08:06:36;;;;;;;2.90;2.10;;;;;;;;;;5011995;28;20050;-86
2023/05/10 08:09:04;;;;;;;2.78;2.50;;;;;;;;;;5011044;28;20101;-86
2023/05/10 08:11:31;;;;;;;3.13;1.67;;;;;;;;;;5012104;28;20114;-87
2023/05/10 08:14:00;;;;;;;1.60;1.60;;;;;;;;;;5012037;28;20137;-85
2023/05/10 08:16:28;;;;;;;2.80;2.33;;;;;;;;;;5012133;28;20521;-86
2023/05/10 08:18:56;;;;;;;1.25;1.23;;;;;;;;;;5012172;28;20410;-85
2023/05/10 08:21:23;;;;;;;1.38;1.38;;;;;;;;;;5011498;28;20056;-86
2023/05/10 08:23:50;;;;;;;1.10;1.10;;;;;;;;;;5013183;28;20065;-86
2023/05/10 08:26:17;;;;;;;1.13;1.10;;;;;;;;;;5013286;28;20085;-86
2023/05/10 08:28:45;;;;;;;1.42;1.35;;;;;;;;;;5011548;28;20042;-86
2023/05/10 08:31:12;;;;;;;1.10;1.10;;;;;;;;;;5013424;28;20380;-86
2023/05/10 08:33:39;;;;;;;1.15;1.15;;;;;;;;;;5012083;28;20050;-86
2023/05/10 08:36:09;;;;;;;1.30;1.17;;;;;;;;;;5011746;28;20529;-86
2023/05/10 08:38:38;;;;;;;2.30;1.20;;;;;;;;;;5013266;28;20050;-86
2023/05/10 08:41:05;;;;;;;2.55;1.20;;;;;;;;;;5011927;28;20069;-87
2023/05/10 08:43:33;;;;;;;1.50;1.00;;;;;;;;;;5013021;28;20056;-86
2023/05/10 08:46:02;;;;;;;2.67;1.00;;;;;;;;;;5012389;28;20096;-86
2023/05/10 08:48:30;;;;;;;1.25;1.25;;;;;;;;;;5013016;28;20129;-86
2023/05/10 08:50:59;;;;;;;1.10;0.93;;;;;;;;;;5013079;28;20053;-87
2023/05/10 08:53:27;;;;;;;0.80;0.80;;;;;;;;;;5012429;28;20049;-88
2023/05/10 08:55:55;;;;;;;3.10;1.45;;;;;;;;;;5012527;28;20080;-87
2023/05/10 08:58:22;;;;;;;5.03;1.40;;;;;;;;;;5015122;28;20046;-87
2023/05/10 09:00:53;;;;;;;8.18;2.92;;;;;;;;;;5011994;28;20084;-86
2023/05/10 09:03:20;;;;;;;3.67;1.83;;;;;;;;;;5012102;28;19972;-85
2023/05/10 09:05:49;;;;;;;3.85;1.35;;;;;;;;;;5011781;28;20046;-86
2023/05/10 09:08:16;;;;;;;2.65;1.20;;;;;;;;;;5013883;28;20069;-86
2023/05/10 09:10:47;;;;;;;1.77;1.02;;;;;;;;;;5015537;28;20092;-86
2023/05/10 09:13:15;;;;;;;0.80;0.80;;;;;;;;;;5016531;28;20121;-86
2023/05/10 09:15:43;;;;;;;2.35;0.70;;;;;;;;;;5016298;28;20060;-86
2023/05/10 09:18:11;;;;;;;0.52;0.50;;;;;;;;;;5016303;28;20050;-86
2023/05/10 09:20:38;;;;;;;0.80;0.50;;;;;;;;;;5016410;28;20176;-87
2023/05/10 09:23:05;;;;;;;0.60;0.40;;;;;;;;;;5014914;28;20058;-86
2023/05/10 09:25:33;;;;;;;0.30;0.30;;;;;;;;;;5016439;28;20053;-86
2023/05/10 09:28:00;;;;;;;1.67;0.45;;;;;;;;;;5015417;28;20058;-87
2023/05/10 09:30:29;;;;;;;0.60;0.60;;;;;;;;;;5015219;28;20089;-87
2023/05/10 09:32:56;;;;;;;2.10;0.68;;;;;;;;;;5015253;28;20054;-88
2023/05/10 09:35:25;;;;;;;0.73;0.50;;;;;;;;;;5015051;28;20104;-87
2023/05/10 09:37:57;;;;;;;0.43;0.40;;;;;;;;;;5015359;28;20045;-86
2023/05/10 09:40:25;;;;;;;1.85;0.50;;;;;;;;;;5016205;28;20104;-88
2023/05/10 09:42:54;;;;;;;2.55;0.80;;;;;;;;;;5015527;28;20560;-87
2023/05/10 09:45:22;;;;;;;0.68;0.68;;;;;;;;;;5016154;28;20049;-87
2023/05/10 09:47:49;;;;;;;0.93;0.85;;;;;;;;;;5014954;28;20134;-88
2023/05/10 09:50:16;;;;;;;3.50;0.73;;;;;;;;;;5015095;28;20046;-87
2023/05/10 09:52:51;;;;;;;4.50;0.55;;;;;;;;;;5015137;28;20395;-87
2023/05/10 09:55:23;;;;;;;2.03;0.40;;;;;;;;;;5016081;28;20092;-87
2023/05/10 09:57:59;;;;;;;2.40;0.30;;;;;;;;;;5015018;28;20054;-85
2023/05/10 10:00:27;;;;;;;0.98;0.35;;;;;;;;;;5015305;28;20072;-88
2023/05/10 10:02:59;;;;;;;0.57;0.30;;;;;;;;;;5014670;28;20049;-89
2023/05/10 10:05:32;;;;;;;0.95;0.28;;;;;;;;;;5015891;28;20061;-88
2023/05/10 10:08:00;;;;;;;0.55;0.10;;;;;;;;;;5014701;28;20388;-86
2023/05/10 10:10:28;;;;;;;1.15;0.22;;;;;;;;;;5015560;28;20056;-87
2023/05/10 10:12:56;;;;;;;0.32;0.32;;;;;;;;;;5019252;28;20060;-86
2023/05/10 10:15:23;;;;;;;0.40;0.40;;;;;;;;;;5023954;28;20141;-87
2023/05/10 10:17:51;;;;;;;1.00;0.30;;;;;;;;;;5015767;28;20050;-86
2023/05/10 10:20:20;;;;;;;0.70;0.20;;;;;;;;;;5014197;28;20053;-86
2023/05/10 10:22:47;;;;;;;0.30;0.30;;;;;;;;;;5015257;28;20065;-86
2023/05/10 10:25:15;;;;;;;0.30;0.30;;;;;;;;;;5014714;28;20046;-87
2023/05/10 10:27:48;;;;;;;2.50;0.40;;;;;;;;;;5015393;28;20066;-86
2023/05/10 10:30:21;;;;;;;0.10;0.10;;;;;;;;;;5014028;28;20077;-86
2023/05/10 10:32:48;;;;;;;2.92;0.45;;;;;;;;;;5014875;28;20133;-86
2023/05/10 10:35:16;;;;;;;0.40;0.40;;;;;;;;;;5015225;28;20052;-87
2023/05/10 10:37:45;;;;;;;0.50;0.40;;;;;;;;;;5013708;28;20499;-86
2023/05/10 10:40:29;;;;;;;0.20;0.20;;;;;;;;;;5014408;28;20072;-87
2023/05/10 10:43:19;;;;;;;1.38;0.40;;;;;;;;;;5013973;28;20057;-86
2023/05/10 10:46:08;;;;;;;0.20;0.20;;;;;;;;;;5013947;28;20050;-87
2023/05/10 10:48:36;;;;;;;0.22;0.22;;;;;;;;;;5014086;28;20053;-86
2023/05/10 10:51:03;;;;;;;0.88;0.63;;;;;;;;;;5013848;28;20108;-86
2023/05/10 10:53:30;;;;;;;2.05;0.50;;;;;;;;;;5013800;28;20056;-86
2023/05/10 10:56:09;;;;;;;1.98;0.40;;;;;;;;;;5013644;28;20050;-86
2023/05/10 10:58:37;;;;;;;0.35;0.35;;;;;;;;;;5012525;28;20042;-86
2023/05/10 11:01:11;;;;;;;0.22;0.22;;;;;;;;;;5013761;28;20060;-86
2023/05/10 11:03:39;;;;;;;0.20;0.20;;;;;;;;;;5013515;28;20085;-86
2023/05/10 11:06:07;;;;;;;1.98;0.35;;;;;;;;;;5013674;28;20089;-86
2023/05/10 11:08:42;;;;;;;0.43;0.15;;;;;;;;;;5014761;28;20421;-86
2023/05/10 11:11:10;;;;;;;6.22;0.55;;;;;;;;;;5013720;28;20405;-85
2023/05/10 11:13:43;;;;;;;11.00;1.33;;;;;;;;;;5014402;28;20058;-86
2023/05/10 11:16:13;;;;;;;2.67;0.30;;;;;;;;;;5014619;28;20056;-87
2023/05/10 11:18:40;;;;;;;0.60;0.20;;;;;;;;;;5013472;28;20099;-87
2023/05/10 11:21:10;;;;;;;0.15;0.15;;;;;;;;;;5013449;28;20050;-87
2023/05/10 11:23:57;;;;;;;1.02;0.10;;;;;;;;;;5012864;28;20054;-87
2023/05/10 11:26:25;;;;;;;0.10;0.10;;;;;;;;;;5013879;28;20046;-87
2023/05/10 11:28:55;;;;;;;1.63;0.35;;;;;;;;;;5019403;28;20045;-86
2023/05/10 11:31:22;;;;;;;2.42;0.32;;;;;;;;;;5018937;28;20141;-86
2023/05/10 11:33:51;;;;;;;0.20;0.20;;;;;;;;;;5014051;28;20482;-86
2023/05/10 11:36:19;;;;;;;7.28;0.60;;;;;;;;;;5013123;28;20069;-87
2023/05/10 11:38:46;;;;;;;0.22;0.20;;;;;;;;;;5013201;28;20042;-86
2023/05/10 11:41:14;;;;;;;0.20;0.20;;;;;;;;;;5013213;28;20475;-87
2023/05/10 11:43:42;;;;;;;0.20;0.20;;;;;;;;;;5012112;28;20490;-87
2023/05/10 11:46:13;;;;;;;0.30;0.30;;;;;;;;;;5013000;28;20104;-87
2023/05/10 11:48:41;;;;;;;0.63;0.20;;;;;;;;;;5013765;28;20503;-87
2023/05/10 11:51:09;;;;;;;0.60;0.20;;;;;;;;;;5013847;28;20049;-87
2023/05/10 11:53:37;;;;;;;0.22;0.22;;;;;;;;;;5012759;28;20057;-86
2023/05/10 11:56:09;;;;;;;0.30;0.30;;;;;;;;;;5013720;28;20053;-87
2023/05/10 11:58:37;;;;;;;0.30;0.30;;;;;;;;;;5012801;28;20137;-87
2023/05/10 12:01:05;;;;;;;1.08;0.47;;;;;;;;;;5013771;28;20050;-87
2023/05/10 12:03:32;;;;;;;12.75;0.90;;;;;;;;;;5012667;28;20053;-87
2023/05/10 12:06:00;;;;;;;0.50;0.28;;;;;;;;;;5012715;28;20108;-87
2023/05/10 12:08:28;;;;;;;2.53;0.30;;;;;;;;;;5012790;28;20109;-86
2023/05/10 12:11:06;;;;;;;5.28;0.98;;;;;;;;;;5012617;28;20057;-87
2023/05/10 12:13:33;;;;;;;0.47;0.28;;;;;;;;;;5012520;28;20046;-87
2023/05/10 12:16:12;;;;;;;0.32;0.30;;;;;;;;;;5012917;28;20136;-87
2023/05/10 12:18:41;;;;;;;2.42;0.50;;;;;;;;;;5013161;28;20050;-86
2023/05/10 12:21:10;;;;;;;5.95;0.43;;;;;;;;;;5011917;28;20491;-86
2023/05/10 12:23:37;;;;;;;0.30;0.30;;;;;;;;;;5012316;28;20054;-88
2023/05/10 12:26:05;;;;;;;0.43;0.20;;;;;;;;;;5011922;28;20042;-88
2023/05/10 12:28:33;;;;;;;2.50;0.25;;;;;;;;;;5013428;28;20085;-86
2023/05/10 12:31:00;;;;;;;1.30;0.30;;;;;;;;;;5013083;28;20046;-87
2023/05/10 12:33:27;;;;;;;2.40;0.47;;;;;;;;;;5012289;28;20493;-87
2023/05/10 12:35:56;;;;;;;3.28;1.02;;;;;;;;;;5011902;28;20050;-86
2023/05/10 12:38:25;;;;;;;11.23;1.30;;;;;;;;;;5012537;28;20046;-86
2023/05/10 12:40:52;;;;;;;4.07;0.47;;;;;;;;;;5013213;28;20054;-87
2023/05/10 12:43:19;;;;;;;0.88;0.50;;;;;;;;;;5015603;28;20054;-87
2023/05/10 12:45:48;;;;;;;0.35;0.32;;;;;;;;;;5027817;28;20060;-87
2023/05/10 12:48:16;;;;;;;1.48;0.50;;;;;;;;;;5015879;28;20054;-85
2023/05/10 12:50:43;;;;;;;0.55;0.55;;;;;;;;;;5015721;28;20505;-86
2023/05/10 12:53:10;;;;;;;0.82;0.82;;;;;;;;;;5016023;28;20092;-86
2023/05/10 12:55:37;;;;;;;1.70;0.40;;;;;;;;;;5015956;28;20481;-87
2023/05/10 12:58:04;;;;;;;2.15;0.80;;;;;;;;;;5016662;28;20054;-87
2023/05/10 13:00:32;;;;;;;1.08;0.70;;;;;;;;;;5016770;28;20046;-87
2023/05/10 13:02:59;;;;;;;1.65;0.70;;;;;;;;;;5015732;28;20084;-87
2023/05/10 13:05:26;;;;;;;1.05;0.80;;;;;;;;;;5016810;28;20129;-86
2023/05/10 13:07:53;;;;;;;13.27;1.60;;;;;;;;;;5015596;28;20141;-86
2023/05/10 13:10:22;;;;;;;3.47;0.85;;;;;;;;;;5015463;28;20053;-86
2023/05/10 13:12:49;;;;;;;3.25;0.60;;;;;;;;;;5014582;28;20049;-87
2023/05/10 13:15:17;;;;;;;0.90;0.90;;;;;;;;;;5013879;28;20060;-86
2023/05/10 13:17:45;;;;;;;1.55;0.95;;;;;;;;;;5013597;28;20529;-87
2023/05/10 13:20:12;;;;;;;5.97;1.10;;;;;;;;;;5015159;28;20475;-87
2023/05/10 13:22:39;;;;;;;6.80;1.05;;;;;;;;;;5013686;28;20481;-86
2023/05/10 13:25:07;;;;;;;1.10;0.73;;;;;;;;;;5015367;28;20486;-87
2023/05/10 13:27:34;;;;;;;0.75;0.60;;;;;;;;;;5015684;28;20101;-86
2023/05/10 13:30:03;;;;;;;15.68;11.48;;;;;;;;;;5015197;28;20388;-87
2023/05/10 13:32:30;;;;;;;85.07;48.03;;;;;;;;;;5015555;28;20414;-87
2023/05/10 13:34:59;;;;;;;7.13;5.43;;;;;;;;;;5015297;28;20498;-87
2023/05/10 13:37:26;;;;;;;5.28;4.22;;;;;;;;;;5015487;28;20141;-87
2023/05/10 13:39:53;;;;;;;5.75;3.78;;;;;;;;;;5015313;28;20045;-87
2023/05/10 13:42:20;;;;;;;17.63;9.85;;;;;;;;;;5015234;28;20057;-87
2023/05/10 13:44:47;;;;;;;25.52;12.13;;;;;;;;;;5015203;28;20053;-87
2023/05/10 13:47:15;;;;;;;1.65;1.55;;;;;;;;;;5015126;28;20407;-87
2023/05/10 13:49:42;;;;;;;1.60;1.50;;;;;;;;;;5016211;28;20061;-87
2023/05/10 13:52:09;;;;;;;8.07;2.22;;;;;;;;;;5015239;28;20050;-87
2023/05/10 13:54:37;;;;;;;18.63;8.82;;;;;;;;;;5015609;28;20065;-87
2023/05/10 13:57:05;;;;;;;3.33;2.45;;;;;;;;;;5015142;28;20049;-87
2023/05/10 13:59:32;;;;;;;1.33;1.27;;;;;;;;;;5017414;28;20060;-87
2023/05/10 14:01:59;;;;;;;106.32;58.97;;;;;;;;;;5026520;28;20470;-87
2023/05/10 14:04:27;;;;;;;81.72;43.15;;;;;;;;;;5014529;28;20050;-87
2023/05/10 14:06:54;;;;;;;40.78;21.85;;;;;;;;;;5015488;28;20085;-87
2023/05/10 14:09:21;;;;;;;54.60;30.80;;;;;;;;;;5014255;28;20056;-86
2023/05/10 14:11:49;;;;;;;28.55;17.60;;;;;;;;;;5014404;28;20417;-87
2023/05/10 14:14:16;;;;;;;17.13;12.75;;;;;;;;;;5014210;28;20056;-87
2023/05/10 14:16:44;;;;;;;22.58;15.70;;;;;;;;;;5014245;28;20050;-87
2023/05/10 14:19:12;;;;;;;3.10;2.55;;;;;;;;;;5014231;28;20042;-86
2023/05/10 14:21:39;;;;;;;7.10;4.72;;;;;;;;;;5013951;28;20145;-86
2023/05/10 14:24:07;;;;;;;12.65;9.15;;;;;;;;;;5013904;28;20058;-86
2023/05/10 14:26:34;;;;;;;6.53;5.07;;;;;;;;;;5014262;28;20061;-86
2023/05/10 14:29:02;;;;;;;5.28;3.78;;;;;;;;;;5014075;28;20409;-87
2023/05/10 14:31:30;;;;;;;4.18;3.20;;;;;;;;;;5014506;28;20078;-87
2023/05/10 14:33:57;;;;;;;1.92;1.80;;;;;;;;;;5013986;28;20137;-87
2023/05/10 14:36:25;;;;;;;2.13;2.03;;;;;;;;;;5014149;28;20072;-87
2023/05/10 14:38:52;;;;;;;2.47;1.80;;;;;;;;;;5014189;28;20114;-86
2023/05/10 14:41:20;;;;;;;1.85;1.75;;;;;;;;;;5013905;28;20050;-87
2023/05/10 14:43:47;;;;;;;1.65;1.55;;;;;;;;;;5013946;28;20076;-87
2023/05/10 14:46:15;;;;;;;22.52;2.85;;;;;;;;;;5013812;28;20057;-87
2023/05/10 14:48:43;;;;;;;1.95;1.55;;;;;;;;;;5013813;28;20045;-87